sensor_id;sensor_type;location;lat;lon;timestamp;pressure;altitude;pressure_sealevel;temperature;humidity
71903;BME280;59778;50.310;18.780;2023-02-02T00:05:57;98013.75;;;0.68;100.00
71903;BME280;59778;50.310;18.780;2023-02-02T00:21:18;98037.50;;;0.71;100.00
71903;BME280;59778;50.310;18.780;2023-02-02T00:36:40;98047.75;;;0.76;100.00
71903;BME280;59778;50.310;18.780;2023-02-02T00:52:03;98043.00;;;0.87;100.00
71903;BME280;59778;50.310;18.780;2023-02-02T01:07:24;98055.00;;;0.83;100.00
71903;BME280;59778;50.310;18.780;2023-02-02T01:22:46;98054.47;;;0.98;100.00
71903;BME280;59778;50.310;18.780;2023-02-02T01:38:07;98067.00;;;1.15;100.00
71903;BME280;59778;50.310;18.780;2023-02-02T01:53:28;98062.09;;;1.28;100.00
71903;BME280;59778;50.310;18.780;2023-02-02T02:09:23;98084.03;;;1.31;100.00
71903;BME280;59778;50.310;18.780;2023-02-02T02:40:41;98104.28;;;1.34;100.00
71903;BME280;59778;50.310;18.780;2023-02-02T02:56:53;98110.75;;;1.49;100.00
71903;BME280;59778;50.310;18.780;2023-02-02T03:11:54;98110.91;;;1.65;100.00
71903;BME280;59778;50.310;18.780;2023-02-02T03:27:16;98127.53;;;1.77;100.00
71903;BME280;59778;50.310;18.780;2023-02-02T03:42:38;98130.56;;;1.82;100.00
71903;BME280;59778;50.310;18.780;2023-02-02T03:58:01;98123.63;;;1.89;100.00
71903;BME280;59778;50.310;18.780;2023-02-02T04:13:23;98111.59;;;1.93;100.00
71903;BME280;59778;50.310;18.780;2023-02-02T04:28:44;98103.56;;;1.93;100.00
71903;BME280;59778;50.310;18.780;2023-02-02T04:44:12;98102.03;;;1.90;100.00
71903;BME280;59778;50.310;18.780;2023-02-02T04:59:34;98107.63;;;1.97;100.00
71903;BME280;59778;50.310;18.780;2023-02-02T05:14:55;98112.19;;;2.05;97.93
71903;BME280;59778;50.310;18.780;2023-02-02T05:30:17;98092.13;;;2.09;96.11
71903;BME280;59778;50.310;18.780;2023-02-02T05:45:38;98092.97;;;2.17;95.23
71903;BME280;59778;50.310;18.780;2023-02-02T06:00:59;98071.78;;;2.24;93.76
71903;BME280;59778;50.310;18.780;2023-02-02T06:16:20;98075.16;;;2.34;90.68
71903;BME280;59778;50.310;18.780;2023-02-02T06:31:42;98113.03;;;2.05;95.01
71903;BME280;59778;50.310;18.780;2023-02-02T06:47:03;98091.53;;;1.71;100.00
71903;BME280;59778;50.310;18.780;2023-02-02T07:02:24;98091.09;;;1.58;100.00
71903;BME280;59778;50.310;18.780;2023-02-02T07:17:46;98100.34;;;1.64;100.00
71903;BME280;59778;50.310;18.780;2023-02-02T07:33:07;98082.41;;;1.82;100.00
71903;BME280;59778;50.310;18.780;2023-02-02T07:48:29;98086.00;;;1.99;100.00
71903;BME280;59778;50.310;18.780;2023-02-02T08:03:51;98103.03;;;2.15;99.60
71903;BME280;59778;50.310;18.780;2023-02-02T08:19:13;98102.97;;;2.41;100.00
71903;BME280;59778;50.310;18.780;2023-02-02T08:34:35;98121.84;;;2.65;99.47
71903;BME280;59778;50.310;18.780;2023-02-02T08:49:57;98146.69;;;2.42;100.00
71903;BME280;59778;50.310;18.780;2023-02-02T09:05:18;98146.94;;;1.97;100.00
71903;BME280;59778;50.310;18.780;2023-02-02T09:20:39;98180.06;;;1.78;100.00
71903;BME280;59778;50.310;18.780;2023-02-02T09:36:10;98188.16;;;1.86;100.00
71903;BME280;59778;50.310;18.780;2023-02-02T09:51:40;98202.06;;;2.07;100.00
71903;BME280;59778;50.310;18.780;2023-02-02T10:07:25;98225.75;;;2.46;100.00
71903;BME280;59778;50.310;18.780;2023-02-02T10:22:49;98239.69;;;2.75;100.00
71903;BME280;59778;50.310;18.780;2023-02-02T10:38:36;98260.84;;;2.52;100.00
71903;BME280;59778;50.310;18.780;2023-02-02T10:54:01;98276.44;;;2.82;100.00
71903;BME280;59778;50.310;18.780;2023-02-02T11:09:38;98277.00;;;2.94;100.00
71903;BME280;59778;50.310;18.780;2023-02-02T11:25:05;98282.34;;;3.28;100.00
71903;BME280;59778;50.310;18.780;2023-02-02T11:40:41;98294.75;;;3.63;100.00
71903;BME280;59778;50.310;18.780;2023-02-02T11:56:19;98320.53;;;3.56;98.92
71903;BME280;59778;50.310;18.780;2023-02-02T12:12:02;98342.09;;;3.38;98.34
71903;BME280;59778;50.310;18.780;2023-02-02T12:27:41;98349.31;;;3.38;97.85
71903;BME280;59778;50.310;18.780;2023-02-02T12:58:55;98391.06;;;3.66;94.45
71903;BME280;59778;50.310;18.780;2023-02-02T13:14:27;98394.50;;;4.42;92.03
71903;BME280;59778;50.310;18.780;2023-02-02T14:00:52;98450.09;;;4.34;84.79
71903;BME280;59778;50.310;18.780;2023-02-02T14:16:23;98470.34;;;4.20;85.35
71903;BME280;59778;50.310;18.780;2023-02-02T14:31:51;98498.09;;;4.28;80.01
71903;BME280;59778;50.310;18.780;2023-02-02T14:47:44;98520.00;;;4.08;85.51
71903;BME280;59778;50.310;18.780;2023-02-02T15:03:45;98550.78;;;3.88;90.71
71903;BME280;59778;50.310;18.780;2023-02-02T15:19:27;98596.59;;;3.60;93.24
71903;BME280;59778;50.310;18.780;2023-02-02T15:34:57;98620.00;;;3.50;91.52
71903;BME280;59778;50.310;18.780;2023-02-02T15:50:20;98655.13;;;3.39;90.81
71903;BME280;59778;50.310;18.780;2023-02-02T16:05:46;98704.16;;;3.14;94.11
71903;BME280;59778;50.310;18.780;2023-02-02T16:21:14;98751.94;;;3.01;95.30
71903;BME280;59778;50.310;18.780;2023-02-02T16:36:37;98756.41;;;2.82;95.55
71903;BME280;59778;50.310;18.780;2023-02-02T16:52:11;98797.06;;;2.78;95.50
71903;BME280;59778;50.310;18.780;2023-02-02T17:07:34;98850.13;;;2.84;95.15
71903;BME280;59778;50.310;18.780;2023-02-02T17:23:00;98883.16;;;2.75;92.99
71903;BME280;59778;50.310;18.780;2023-02-02T17:38:23;98899.81;;;2.50;92.65
71903;BME280;59778;50.310;18.780;2023-02-02T17:53:45;98928.28;;;2.22;80.59
71903;BME280;59778;50.310;18.780;2023-02-02T18:09:08;98951.44;;;2.13;73.82
71903;BME280;59778;50.310;18.780;2023-02-02T18:24:29;98962.53;;;2.09;73.24
71903;BME280;59778;50.310;18.780;2023-02-02T18:39:51;99008.50;;;2.14;73.60
71903;BME280;59778;50.310;18.780;2023-02-02T18:55:14;99040.63;;;2.04;74.75
71903;BME280;59778;50.310;18.780;2023-02-02T19:10:35;99083.00;;;1.89;75.08
71903;BME280;59778;50.310;18.780;2023-02-02T19:25:59;99123.66;;;1.83;79.27
71903;BME280;59778;50.310;18.780;2023-02-02T19:41:23;99146.78;;;1.64;78.22
71903;BME280;59778;50.310;18.780;2023-02-02T19:56:45;99180.88;;;1.62;78.79
71903;BME280;59778;50.310;18.780;2023-02-02T20:12:23;99207.75;;;1.60;79.29
71903;BME280;59778;50.310;18.780;2023-02-02T20:27:46;99237.25;;;1.49;79.24
71903;BME280;59778;50.310;18.780;2023-02-02T20:43:08;99251.25;;;1.41;80.97
71903;BME280;59778;50.310;18.780;2023-02-02T20:58:29;99275.97;;;1.34;81.23
71903;BME280;59778;50.310;18.780;2023-02-02T21:13:51;99301.28;;;1.30;82.71
71903;BME280;59778;50.310;18.780;2023-02-02T21:29:15;99316.59;;;1.17;82.60
71903;BME280;59778;50.310;18.780;2023-02-02T21:44:38;99355.13;;;1.03;82.59
71903;BME280;59778;50.310;18.780;2023-02-02T22:00:22;99352.84;;;0.99;82.88
71903;BME280;59778;50.310;18.780;2023-02-02T22:15:46;99367.41;;;0.94;82.43
71903;BME280;59778;50.310;18.780;2023-02-02T22:31:09;99367.03;;;0.88;82.38
71903;BME280;59778;50.310;18.780;2023-02-02T22:46:30;99388.66;;;0.85;81.99
71903;BME280;59778;50.310;18.780;2023-02-02T23:01:51;99415.41;;;0.85;81.78
71903;BME280;59778;50.310;18.780;2023-02-02T23:17:12;99433.16;;;0.86;82.26
71903;BME280;59778;50.310;18.780;2023-02-02T23:32:34;99436.88;;;0.83;82.08
71903;BME280;59778;50.310;18.780;2023-02-02T23:47:55;99459.59;;;0.67;82.52
